Time;durP1;ratioP1;P1;durP2;ratioP2;P2;SDS_P1;SDS_P2;PMS_P1;PMS_P2;Temp;Humidity;BMP_temperature;BMP_pressure;BME280_temperature;BME280_humidity;BME280_pressure;Samples;Min_cycle;Max_cycle;Signal;HPM_P1;HPM_P2
2022/08/25 00:01:40;;;;;;;10.82;4.15;;;;;;;;;;1722911;82;21005;-64
2022/08/25 00:04:09;;;;;;;8.18;4.20;;;;;;;;;;1728826;81;21053;-66
2022/08/25 00:06:35;;;;;;;7.45;4.10;;;;;;;;;;1723769;81;20962;-64
2022/08/25 00:09:02;;;;;;;7.85;4.17;;;;;;;;;;1729791;81;21053;-64
2022/08/25 00:11:29;;;;;;;9.40;4.40;;;;;;;;;;1722035;81;21017;-64
2022/08/25 00:13:57;;;;;;;9.28;4.37;;;;;;;;;;1723289;82;21029;-65
2022/08/25 00:16:24;;;;;;;10.30;4.03;;;;;;;;;;1726258;81;21116;-65
2022/08/25 00:18:51;;;;;;;9.23;3.98;;;;;;;;;;1724044;82;21061;-65
2022/08/25 00:21:18;;;;;;;7.47;4.22;;;;;;;;;;1727714;82;21561;-65
2022/08/25 00:23:44;;;;;;;8.10;4.28;;;;;;;;;;1746449;80;21577;-65
2022/08/25 00:26:10;;;;;;;8.10;4.45;;;;;;;;;;1736641;82;21099;-65
2022/08/25 00:31:25;;;;;;;7.53;4.35;;;;;;;;;;1813299;78;22912;-65
2022/08/25 00:33:51;;;;;;;10.08;3.95;;;;;;;;;;1770324;80;20981;-66
2022/08/25 00:36:17;;;;;;;10.63;4.30;;;;;;;;;;1767278;80;21005;-66
2022/08/25 00:38:44;;;;;;;9.83;4.25;;;;;;;;;;1765206;80;21083;-65
2022/08/25 00:41:11;;;;;;;7.67;3.92;;;;;;;;;;1770136;80;21092;-65
2022/08/25 00:43:44;;;;;;;8.18;4.47;;;;;;;;;;1768514;80;21052;-66
2022/08/25 00:46:13;;;;;;;8.67;4.30;;;;;;;;;;1765973;80;21056;-66
2022/08/25 00:48:41;;;;;;;8.80;3.90;;;;;;;;;;1766028;80;21220;-66
2022/08/25 00:51:08;;;;;;;7.87;4.20;;;;;;;;;;1722638;81;21066;-66
2022/08/25 00:53:35;;;;;;;9.15;4.40;;;;;;;;;;1711937;83;21047;-66
2022/08/25 00:56:01;;;;;;;10.40;4.15;;;;;;;;;;1698973;83;21070;-65
2022/08/25 00:58:27;;;;;;;7.50;4.17;;;;;;;;;;1699099;84;21077;-65
2022/08/25 01:03:42;;;;;;;6.72;4.10;;;;;;;;;;1713731;80;21198;-69
2022/08/25 01:06:10;;;;;;;6.10;3.85;;;;;;;;;;1692197;85;21064;-69
2022/08/25 01:08:36;;;;;;;10.23;4.12;;;;;;;;;;1687734;83;20988;-69
2022/08/25 01:11:03;;;;;;;9.73;4.65;;;;;;;;;;1691541;85;21079;-69
2022/08/25 01:13:35;;;;;;;8.93;4.17;;;;;;;;;;1691292;85;21145;-69
2022/08/25 01:16:02;;;;;;;9.38;4.47;;;;;;;;;;1692908;85;21050;-71
2022/08/25 01:18:28;;;;;;;9.53;4.45;;;;;;;;;;1659426;85;21577;-71
2022/08/25 01:20:54;;;;;;;6.00;3.70;;;;;;;;;;1694348;85;21024;-71
2022/08/25 01:23:21;;;;;;;8.03;4.37;;;;;;;;;;1657153;85;21010;-71
2022/08/25 01:25:52;;;;;;;8.00;4.58;;;;;;;;;;1686978;85;21088;-71
2022/08/25 01:28:18;;;;;;;6.72;3.85;;;;;;;;;;1687397;85;21099;-71
2022/08/25 01:30:45;;;;;;;8.70;4.40;;;;;;;;;;1692550;85;21555;-71
2022/08/25 01:33:10;;;;;;;8.48;4.00;;;;;;;;;;1657226;86;21026;-70
2022/08/25 01:35:37;;;;;;;8.43;4.53;;;;;;;;;;1692478;85;21076;-70
2022/08/25 01:38:04;;;;;;;8.65;4.25;;;;;;;;;;1693331;85;21083;-71
2022/08/25 01:40:31;;;;;;;10.00;4.70;;;;;;;;;;1690585;85;22218;-70
2022/08/25 01:42:59;;;;;;;9.65;3.98;;;;;;;;;;1693103;85;21032;-70
2022/08/25 01:45:25;;;;;;;9.90;4.28;;;;;;;;;;1660010;85;21119;-70
2022/08/25 01:47:51;;;;;;;8.60;4.67;;;;;;;;;;1691423;85;21856;-70
2022/08/25 01:50:17;;;;;;;8.95;4.60;;;;;;;;;;1691984;85;21053;-70
2022/08/25 01:53:02;;;;;;;9.98;4.50;;;;;;;;;;1696475;83;21021;-70
2022/08/25 01:55:28;;;;;;;9.15;4.62;;;;;;;;;;1694942;83;21515;-71
2022/08/25 01:57:54;;;;;;;8.03;3.60;;;;;;;;;;1698785;83;21103;-71
2022/08/25 02:00:21;;;;;;;9.33;4.28;;;;;;;;;;1693545;85;21071;-70
2022/08/25 02:02:47;;;;;;;9.60;4.72;;;;;;;;;;1692879;83;21626;-70
2022/08/25 02:05:15;;;;;;;6.87;3.87;;;;;;;;;;1637970;86;21555;-70
2022/08/25 02:07:42;;;;;;;8.95;4.25;;;;;;;;;;1597132;88;21141;-70
2022/08/25 02:10:09;;;;;;;7.22;3.92;;;;;;;;;;1630789;86;22259;-71
2022/08/25 02:12:35;;;;;;;6.10;3.77;;;;;;;;;;1627267;86;21576;-71
2022/08/25 02:15:04;;;;;;;11.65;4.67;;;;;;;;;;1630892;86;21042;-70
2022/08/25 02:17:31;;;;;;;10.88;4.62;;;;;;;;;;1633558;86;21029;-71
2022/08/25 02:19:57;;;;;;;12.93;4.45;;;;;;;;;;1633457;86;21080;-70
2022/08/25 02:22:24;;;;;;;8.33;4.08;;;;;;;;;;1635121;86;21077;-70
2022/08/25 02:24:50;;;;;;;7.25;3.52;;;;;;;;;;1637608;86;21045;-70
2022/08/25 02:27:17;;;;;;;9.68;4.40;;;;;;;;;;1632211;86;21025;-71
2022/08/25 02:29:44;;;;;;;6.42;3.75;;;;;;;;;;1639331;86;21073;-71
2022/08/25 02:32:10;;;;;;;9.58;4.25;;;;;;;;;;1639668;86;20982;-71
2022/08/25 02:34:39;;;;;;;8.50;4.20;;;;;;;;;;1631783;87;21049;-71
2022/08/25 02:37:05;;;;;;;9.10;4.50;;;;;;;;;;1604447;88;21118;-70
2022/08/25 02:39:32;;;;;;;6.53;4.08;;;;;;;;;;1633604;86;21253;-71
2022/08/25 02:41:58;;;;;;;7.62;4.35;;;;;;;;;;1639768;86;21017;-72
2022/08/25 02:44:25;;;;;;;6.10;4.40;;;;;;;;;;1634126;86;21064;-70
2022/08/25 02:46:51;;;;;;;7.05;3.92;;;;;;;;;;1636221;86;21076;-70
2022/08/25 02:49:17;;;;;;;11.83;4.83;;;;;;;;;;1630859;86;21025;-71
2022/08/25 02:51:43;;;;;;;14.63;4.67;;;;;;;;;;1636768;86;21010;-71
2022/08/25 02:54:10;;;;;;;12.10;4.22;;;;;;;;;;1633619;87;21077;-71
2022/08/25 02:56:36;;;;;;;14.65;4.62;;;;;;;;;;1631655;87;21213;-71
2022/08/25 02:59:02;;;;;;;9.63;4.85;;;;;;;;;;1636191;86;21679;-71
2022/08/25 03:01:29;;;;;;;7.97;4.10;;;;;;;;;;1632582;87;21068;-71
2022/08/25 03:03:55;;;;;;;9.85;4.25;;;;;;;;;;1630482;86;21140;-70
2022/08/25 03:06:22;;;;;;;8.85;5.10;;;;;;;;;;1638189;86;21080;-70
2022/08/25 03:08:49;;;;;;;9.98;5.17;;;;;;;;;;1635468;86;21045;-70
2022/08/25 03:11:16;;;;;;;8.95;4.42;;;;;;;;;;1637571;86;21084;-71
2022/08/25 03:13:42;;;;;;;11.28;4.40;;;;;;;;;;1635349;86;21124;-71
2022/08/25 03:16:09;;;;;;;13.90;4.50;;;;;;;;;;1629474;86;21073;-71
2022/08/25 03:18:36;;;;;;;11.28;5.33;;;;;;;;;;1629886;88;21584;-71
2022/08/25 03:21:02;;;;;;;16.60;9.05;;;;;;;;;;1630142;88;21061;-72
2022/08/25 03:23:28;;;;;;;10.78;5.08;;;;;;;;;;1630509;86;21084;-72
2022/08/25 03:28:40;;;;;;;10.85;6.10;;;;;;;;;;1633681;86;21145;-72
2022/08/25 03:31:07;;;;;;;6.83;4.92;;;;;;;;;;1633386;86;21144;-72
2022/08/25 03:33:33;;;;;;;7.75;4.67;;;;;;;;;;1630914;86;21105;-72
2022/08/25 03:35:59;;;;;;;10.23;5.60;;;;;;;;;;1629446;88;21057;-71
2022/08/25 03:38:25;;;;;;;20.05;5.90;;;;;;;;;;1629940;88;21026;-71
2022/08/25 03:40:52;;;;;;;27.40;5.65;;;;;;;;;;1630673;86;21691;-72
2022/08/25 03:43:18;;;;;;;10.75;4.60;;;;;;;;;;1629782;88;21377;-71
2022/08/25 03:45:46;;;;;;;9.25;5.40;;;;;;;;;;1629549;88;21639;-70
2022/08/25 03:48:13;;;;;;;7.90;4.53;;;;;;;;;;1631239;86;21077;-71
2022/08/25 03:50:48;;;;;;;9.28;4.97;;;;;;;;;;1630775;86;21165;-71
2022/08/25 03:53:14;;;;;;;9.83;5.25;;;;;;;;;;1635969;86;21022;-71
2022/08/25 03:55:40;;;;;;;13.83;4.92;;;;;;;;;;1625388;86;21583;-71
2022/08/25 03:58:07;;;;;;;10.20;4.62;;;;;;;;;;1609049;88;21566;-71
2022/08/25 04:00:33;;;;;;;7.97;4.37;;;;;;;;;;1630515;86;21091;-71
2022/08/25 04:02:59;;;;;;;8.70;5.28;;;;;;;;;;1640821;86;21094;-71
2022/08/25 04:05:25;;;;;;;8.83;5.00;;;;;;;;;;1654899;86;21026;-71
2022/08/25 04:07:52;;;;;;;10.35;4.85;;;;;;;;;;1630743;88;21105;-71
2022/08/25 04:10:19;;;;;;;12.63;4.53;;;;;;;;;;1638888;86;21155;-71
2022/08/25 04:12:48;;;;;;;8.38;4.65;;;;;;;;;;1632641;86;21212;-71
2022/08/25 04:15:14;;;;;;;9.20;5.10;;;;;;;;;;1604518;88;21036;-71
2022/08/25 04:17:39;;;;;;;8.03;4.37;;;;;;;;;;1630592;88;21232;-71
2022/08/25 04:20:07;;;;;;;9.18;5.22;;;;;;;;;;1629703;88;21560;-70
2022/08/25 04:22:33;;;;;;;10.93;4.80;;;;;;;;;;1599233;88;21093;-70
2022/08/25 04:24:59;;;;;;;7.30;4.50;;;;;;;;;;1658464;86;21021;-70
2022/08/25 04:27:26;;;;;;;11.68;5.03;;;;;;;;;;1665643;85;21089;-70
2022/08/25 04:29:53;;;;;;;7.55;4.85;;;;;;;;;;1666421;86;21058;-70
2022/08/25 04:32:19;;;;;;;11.80;5.47;;;;;;;;;;1632321;86;21084;-70
2022/08/25 04:34:46;;;;;;;8.73;4.67;;;;;;;;;;1667054;85;21087;-69
2022/08/25 04:37:11;;;;;;;8.00;5.10;;;;;;;;;;1667057;85;21577;-70
2022/08/25 04:39:38;;;;;;;10.98;5.12;;;;;;;;;;1666370;86;21117;-70
2022/08/25 04:42:04;;;;;;;9.48;5.15;;;;;;;;;;1666574;85;21569;-70
2022/08/25 04:44:30;;;;;;;9.98;5.10;;;;;;;;;;1666850;85;21500;-70
2022/08/25 04:46:56;;;;;;;10.85;5.58;;;;;;;;;;1666387;85;21129;-71
2022/08/25 04:49:22;;;;;;;7.97;5.28;;;;;;;;;;1664866;86;21031;-71
2022/08/25 04:51:49;;;;;;;10.60;5.17;;;;;;;;;;1666090;85;21132;-71
2022/08/25 04:54:21;;;;;;;8.13;4.87;;;;;;;;;;1629468;88;21084;-70
2022/08/25 04:56:48;;;;;;;;;;;;;;;;;;1671835;85;21311;-70
2022/08/25 04:59:14;;;;;;;8.08;4.72;;;;;;;;;;1665959;85;20146;-70
2022/08/25 05:01:42;;;;;;;9.93;5.15;;;;;;;;;;1665299;85;21515;-70
2022/08/25 05:04:08;;;;;;;9.20;5.05;;;;;;;;;;1665999;85;21145;-70
2022/08/25 05:06:36;;;;;;;9.98;5.37;;;;;;;;;;1663534;86;21088;-70
2022/08/25 05:09:03;;;;;;;9.28;5.17;;;;;;;;;;1636785;88;21067;-71
2022/08/25 05:11:29;;;;;;;8.35;5.65;;;;;;;;;;1645861;85;21611;-71
2022/08/25 05:13:57;;;;;;;9.53;5.83;;;;;;;;;;1667340;85;21101;-71
2022/08/25 05:16:23;;;;;;;8.78;5.30;;;;;;;;;;1666217;85;21096;-71
2022/08/25 05:18:49;;;;;;;9.75;5.62;;;;;;;;;;1668252;85;21062;-71
2022/08/25 05:21:17;;;;;;;10.10;5.45;;;;;;;;;;1661647;85;21594;-72
2022/08/25 05:23:45;;;;;;;6.55;5.03;;;;;;;;;;1671834;85;21538;-70
2022/08/25 05:26:12;;;;;;;8.68;5.97;;;;;;;;;;1668910;85;21039;-71
2022/08/25 05:28:40;;;;;;;12.28;5.60;;;;;;;;;;1665502;85;21024;-72
2022/08/25 05:31:07;;;;;;;9.85;7.20;;;;;;;;;;1665204;85;21107;-74
2022/08/25 05:33:37;;;;;;;10.72;5.80;;;;;;;;;;1662175;85;21046;-71
2022/08/25 05:36:03;;;;;;;8.03;5.50;;;;;;;;;;1665613;85;21078;-71
2022/08/25 05:38:30;;;;;;;8.53;5.25;;;;;;;;;;1668064;85;21057;-71
2022/08/25 05:41:00;;;;;;;9.43;5.47;;;;;;;;;;1663209;86;21102;-70
2022/08/25 05:43:27;;;;;;;7.78;5.83;;;;;;;;;;1668356;85;21091;-71
2022/08/25 05:45:54;;;;;;;8.85;5.42;;;;;;;;;;1663810;86;21528;-71
2022/08/25 05:48:20;;;;;;;6.90;5.40;;;;;;;;;;1663413;86;21057;-70
2022/08/25 05:50:51;;;;;;;11.48;6.10;;;;;;;;;;1663122;86;21086;-71
2022/08/25 05:53:18;;;;;;;10.55;5.72;;;;;;;;;;1664052;85;21133;-70
2022/08/25 05:55:44;;;;;;;11.70;5.90;;;;;;;;;;1669535;85;21009;-70
2022/08/25 05:58:10;;;;;;;10.03;6.08;;;;;;;;;;1666808;85;21062;-69
2022/08/25 06:00:37;;;;;;;14.45;5.85;;;;;;;;;;1629648;87;21046;-69
2022/08/25 06:03:03;;;;;;;19.35;6.60;;;;;;;;;;1594205;88;21093;-71
2022/08/25 06:05:31;;;;;;;10.18;5.50;;;;;;;;;;1670713;85;21078;-71
2022/08/25 06:07:57;;;;;;;9.10;6.03;;;;;;;;;;1631963;88;21047;-70
2022/08/25 06:10:24;;;;;;;12.35;5.87;;;;;;;;;;1652830;86;21594;-71
2022/08/25 06:12:50;;;;;;;9.68;5.78;;;;;;;;;;1597640;88;21131;-71
2022/08/25 06:15:19;;;;;;;12.93;5.80;;;;;;;;;;1611919;88;21573;-71
2022/08/25 06:17:46;;;;;;;9.65;5.60;;;;;;;;;;1666671;85;21034;-71
2022/08/25 06:20:15;;;;;;;12.30;5.97;;;;;;;;;;1663694;85;21085;-72
2022/08/25 06:22:41;;;;;;;16.55;5.92;;;;;;;;;;1671817;85;21157;-73
2022/08/25 06:25:08;;;;;;;13.95;6.00;;;;;;;;;;1637667;86;21137;-73
2022/08/25 06:27:34;;;;;;;9.38;5.62;;;;;;;;;;1600030;88;21066;-71
2022/08/25 06:30:03;;;;;;;12.70;5.78;;;;;;;;;;1615989;88;21045;-71
2022/08/25 06:32:31;;;;;;;13.93;5.08;;;;;;;;;;1674882;85;21572;-71
2022/08/25 06:34:57;;;;;;;9.33;5.25;;;;;;;;;;1680264;85;21088;-70
2022/08/25 06:37:24;;;;;;;9.30;5.45;;;;;;;;;;1640583;86;21002;-70
2022/08/25 06:39:50;;;;;;;13.90;5.92;;;;;;;;;;1635058;86;21074;-70
2022/08/25 06:42:16;;;;;;;12.35;5.60;;;;;;;;;;1639762;86;21093;-70
2022/08/25 06:44:43;;;;;;;9.93;5.50;;;;;;;;;;1595088;88;21072;-70
2022/08/25 06:47:09;;;;;;;12.10;6.03;;;;;;;;;;1628827;86;21020;-71
2022/08/25 06:49:35;;;;;;;10.08;5.12;;;;;;;;;;1643284;86;21064;-71
2022/08/25 06:52:01;;;;;;;11.70;5.45;;;;;;;;;;1640937;86;21022;-71
2022/08/25 06:54:27;;;;;;;14.05;5.25;;;;;;;;;;1643234;86;21046;-70
2022/08/25 06:56:53;;;;;;;10.05;5.17;;;;;;;;;;1669435;85;21119;-72
2022/08/25 06:59:19;;;;;;;8.93;5.30;;;;;;;;;;1672624;85;21034;-72
2022/08/25 07:01:45;;;;;;;8.48;5.10;;;;;;;;;;1672635;85;21081;-72
2022/08/25 07:04:12;;;;;;;10.20;4.87;;;;;;;;;;1668902;85;21105;-71
2022/08/25 07:06:38;;;;;;;11.03;5.58;;;;;;;;;;1643257;85;21060;-71
2022/08/25 07:09:05;;;;;;;10.20;4.87;;;;;;;;;;1665056;85;21012;-71
2022/08/25 07:11:33;;;;;;;9.28;4.95;;;;;;;;;;1663483;86;21038;-71
2022/08/25 07:14:01;;;;;;;12.53;5.30;;;;;;;;;;1661312;85;21635;-70
2022/08/25 07:16:28;;;;;;;71.45;59.60;;;;;;;;;;1666450;85;21037;-70
2022/08/25 07:18:55;;;;;;;30.23;26.25;;;;;;;;;;1672420;85;21036;-69
2022/08/25 07:21:23;;;;;;;42.88;35.52;;;;;;;;;;1653197;85;21108;-70
2022/08/25 07:23:49;;;;;;;13.30;6.05;;;;;;;;;;1628154;86;21081;-69
2022/08/25 07:26:18;;;;;;;10.95;5.20;;;;;;;;;;1669410;85;21185;-68
2022/08/25 07:28:44;;;;;;;15.70;6.30;;;;;;;;;;1675642;85;21023;-68
2022/08/25 07:31:10;;;;;;;9.78;5.17;;;;;;;;;;1664286;85;21000;-68
2022/08/25 07:33:37;;;;;;;20.85;5.53;;;;;;;;;;1667123;85;21061;-68
2022/08/25 07:36:03;;;;;;;11.20;5.45;;;;;;;;;;1670762;85;21101;-68
2022/08/25 07:38:29;;;;;;;28.95;5.85;;;;;;;;;;1661428;85;21036;-68
2022/08/25 07:41:01;;;;;;;9.88;5.08;;;;;;;;;;1661869;85;21700;-70
2022/08/25 07:43:28;;;;;;;20.02;11.95;;;;;;;;;;1656880;86;21050;-72
2022/08/25 07:45:54;;;;;;;44.20;31.50;;;;;;;;;;1656357;86;20999;-71
2022/08/25 07:48:19;;;;;;;10.15;5.78;;;;;;;;;;1652546;86;21075;-67
2022/08/25 07:50:46;;;;;;;9.30;4.87;;;;;;;;;;1664198;85;21014;-67
2022/08/25 07:53:12;;;;;;;9.95;4.87;;;;;;;;;;1663483;85;21023;-67
2022/08/25 07:55:38;;;;;;;14.73;5.20;;;;;;;;;;1663835;86;21052;-69
2022/08/25 07:58:05;;;;;;;7.40;4.70;;;;;;;;;;1663199;85;21466;-67
2022/08/25 08:00:32;;;;;;;7.37;4.70;;;;;;;;;;1660324;86;21587;-68
2022/08/25 08:02:58;;;;;;;11.35;4.70;;;;;;;;;;1662400;85;21144;-66
2022/08/25 08:05:24;;;;;;;11.05;4.92;;;;;;;;;;1669663;85;21068;-67
2022/08/25 08:07:52;;;;;;;9.88;4.45;;;;;;;;;;1665198;85;21163;-67
2022/08/25 08:10:18;;;;;;;12.63;4.70;;;;;;;;;;1662468;85;22342;-66
2022/08/25 08:12:45;;;;;;;25.65;5.25;;;;;;;;;;1624540;87;21540;-66
2022/08/25 08:15:11;;;;;;;12.07;4.87;;;;;;;;;;1618266;87;21096;-67
2022/08/25 08:17:38;;;;;;;8.30;5.12;;;;;;;;;;1628882;88;21041;-68
2022/08/25 08:20:07;;;;;;;5.80;4.20;;;;;;;;;;1601024;88;21049;-67
2022/08/25 08:22:32;;;;;;;12.95;4.70;;;;;;;;;;1607149;88;21096;-68
2022/08/25 08:24:59;;;;;;;9.53;4.97;;;;;;;;;;1603726;88;21156;-67
2022/08/25 08:27:25;;;;;;;10.85;4.30;;;;;;;;;;1631892;86;21660;-68
2022/08/25 08:29:52;;;;;;;11.38;5.30;;;;;;;;;;1630295;86;21104;-67
2022/08/25 08:32:18;;;;;;;9.83;4.45;;;;;;;;;;1665463;85;21055;-67
2022/08/25 08:34:46;;;;;;;6.35;4.33;;;;;;;;;;1673862;85;21646;-68
2022/08/25 08:37:12;;;;;;;7.67;4.40;;;;;;;;;;1636350;86;21057;-68
2022/08/25 08:39:38;;;;;;;7.50;4.50;;;;;;;;;;1624477;86;21541;-69
2022/08/25 08:42:15;;;;;;;6.62;4.65;;;;;;;;;;1635537;86;21577;-69
2022/08/25 08:44:45;;;;;;;9.98;4.70;;;;;;;;;;1606146;88;21100;-69
2022/08/25 08:47:12;;;;;;;9.95;4.30;;;;;;;;;;1605013;88;21052;-69
2022/08/25 08:49:59;;;;;;;10.78;4.55;;;;;;;;;;1591039;88;21124;-68
2022/08/25 08:52:30;;;;;;;10.00;4.30;;;;;;;;;;1624450;86;21049;-65
2022/08/25 08:54:59;;;;;;;13.30;5.40;;;;;;;;;;1645069;86;21487;-68
2022/08/25 08:57:26;;;;;;;14.73;5.37;;;;;;;;;;1603046;88;21072;-67
2022/08/25 08:59:56;;;;;;;7.60;4.00;;;;;;;;;;1610805;88;21081;-68
2022/08/25 09:02:25;;;;;;;11.18;4.83;;;;;;;;;;1609229;88;21101;-68
2022/08/25 09:04:53;;;;;;;6.05;3.87;;;;;;;;;;1625315;86;21033;-67
2022/08/25 09:07:20;;;;;;;6.83;4.10;;;;;;;;;;1632864;86;21131;-69
2022/08/25 09:09:46;;;;;;;6.37;4.20;;;;;;;;;;1630680;86;21585;-69
2022/08/25 09:12:14;;;;;;;7.45;4.65;;;;;;;;;;1607407;88;21041;-69
2022/08/25 09:14:52;;;;;;;6.87;4.17;;;;;;;;;;1644849;86;21053;-69
2022/08/25 09:17:21;;;;;;;5.87;3.77;;;;;;;;;;1636811;86;21094;-69
2022/08/25 09:19:57;;;;;;;12.85;3.95;;;;;;;;;;1638240;86;21360;-69
2022/08/25 09:22:25;;;;;;;12.23;4.20;;;;;;;;;;1637435;86;21557;-69
2022/08/25 09:24:59;;;;;;;9.18;4.00;;;;;;;;;;1607059;88;21113;-66
2022/08/25 09:27:37;;;;;;;4.92;3.90;;;;;;;;;;1611814;88;21104;-66
2022/08/25 09:30:05;;;;;;;5.67;3.80;;;;;;;;;;1590865;88;21037;-67
2022/08/25 09:32:42;;;;;;;7.37;3.92;;;;;;;;;;1604233;88;21108;-68
2022/08/25 09:35:19;;;;;;;9.30;4.00;;;;;;;;;;1622720;86;21101;-68
2022/08/25 09:37:54;;;;;;;7.83;3.77;;;;;;;;;;1630235;86;21126;-67
2022/08/25 09:40:21;;;;;;;7.78;4.05;;;;;;;;;;1595448;88;21059;-67
2022/08/25 09:42:48;;;;;;;70.08;60.12;;;;;;;;;;1651904;86;21305;-67
2022/08/25 09:45:14;;;;;;;17.12;13.08;;;;;;;;;;1639773;86;21538;-67
2022/08/25 09:47:44;;;;;;;9.33;4.37;;;;;;;;;;1638749;86;21091;-66
2022/08/25 09:50:14;;;;;;;8.90;3.50;;;;;;;;;;1609328;88;21552;-66
2022/08/25 09:52:41;;;;;;;8.93;3.00;;;;;;;;;;1642459;86;21027;-66
2022/08/25 09:55:09;;;;;;;9.45;3.55;;;;;;;;;;1642842;86;21577;-66
2022/08/25 09:57:37;;;;;;;9.73;3.50;;;;;;;;;;1644507;86;21101;-67
2022/08/25 10:00:17;;;;;;;7.20;3.30;;;;;;;;;;1638047;86;21110;-67
2022/08/25 10:02:44;;;;;;;7.37;3.45;;;;;;;;;;1656588;86;21099;-66
2022/08/25 10:05:15;;;;;;;5.15;3.17;;;;;;;;;;1641971;86;21204;-67
2022/08/25 10:07:43;;;;;;;5.83;2.98;;;;;;;;;;1643570;86;21067;-68
2022/08/25 10:10:17;;;;;;;5.95;3.12;;;;;;;;;;1656282;86;21055;-69
2022/08/25 10:12:43;;;;;;;7.28;2.80;;;;;;;;;;1668021;85;21046;-69
2022/08/25 10:15:19;;;;;;;5.50;2.72;;;;;;;;;;1666813;85;21107;-68
2022/08/25 10:17:45;;;;;;;8.95;3.62;;;;;;;;;;1635520;86;21628;-68
2022/08/25 10:20:14;;;;;;;4.35;2.90;;;;;;;;;;1629473;86;21124;-68
2022/08/25 10:22:41;;;;;;;6.70;3.47;;;;;;;;;;1617196;89;21038;-68
2022/08/25 10:25:10;;;;;;;8.88;3.02;;;;;;;;;;1631073;88;21112;-67
2022/08/25 10:27:39;;;;;;;6.33;2.98;;;;;;;;;;1612338;88;21433;-68
2022/08/25 10:30:12;;;;;;;6.15;2.70;;;;;;;;;;1628524;87;21049;-69
2022/08/25 10:32:53;;;;;;;6.40;3.72;;;;;;;;;;1668625;85;21131;-68
2022/08/25 10:35:22;;;;;;;4.40;2.65;;;;;;;;;;1673398;85;21545;-69
2022/08/25 10:37:50;;;;;;;5.90;2.65;;;;;;;;;;1665175;85;21026;-69
2022/08/25 10:40:24;;;;;;;8.43;2.72;;;;;;;;;;1669663;85;21048;-69
2022/08/25 10:42:58;;;;;;;6.58;2.77;;;;;;;;;;1657337;85;21012;-70
2022/08/25 10:45:44;;;;;;;17.02;12.70;;;;;;;;;;1654200;86;21564;-69
2022/08/25 10:48:24;;;;;;;19.07;13.90;;;;;;;;;;1629114;86;20986;-70
2022/08/25 10:50:52;;;;;;;12.35;4.80;;;;;;;;;;1626031;88;21117;-68
2022/08/25 10:53:37;;;;;;;9.58;3.65;;;;;;;;;;1675753;85;21084;-69
2022/08/25 10:56:05;;;;;;;5.67;2.83;;;;;;;;;;1671030;85;21074;-69
2022/08/25 10:58:50;;;;;;;6.90;3.25;;;;;;;;;;1669292;85;21011;-68
2022/08/25 11:01:36;;;;;;;8.60;3.10;;;;;;;;;;1689118;85;21024;-68
2022/08/25 11:04:06;;;;;;;4.10;2.70;;;;;;;;;;1682771;85;21538;-68
2022/08/25 11:06:40;;;;;;;5.97;3.00;;;;;;;;;;1667571;85;21009;-68
2022/08/25 11:09:07;;;;;;;4.78;2.70;;;;;;;;;;1653552;86;21552;-68
2022/08/25 11:11:39;;;;;;;9.18;2.90;;;;;;;;;;1643157;86;21080;-67
2022/08/25 11:14:07;;;;;;;4.90;2.85;;;;;;;;;;1636512;86;21106;-70
2022/08/25 11:16:37;;;;;;;11.25;3.30;;;;;;;;;;1645959;86;21000;-68
2022/08/25 11:19:06;;;;;;;4.90;3.25;;;;;;;;;;1640957;86;21035;-69
2022/08/25 11:21:51;;;;;;;5.53;3.30;;;;;;;;;;1641219;86;20993;-69
2022/08/25 11:24:34;;;;;;;6.97;2.67;;;;;;;;;;1650035;86;21182;-68
2022/08/25 11:27:01;;;;;;;6.20;3.27;;;;;;;;;;1650080;86;21118;-68
2022/08/25 11:29:30;;;;;;;5.10;3.10;;;;;;;;;;1647737;86;21001;-69
2022/08/25 11:31:57;;;;;;;6.70;3.02;;;;;;;;;;1645681;86;22157;-69
2022/08/25 11:34:24;;;;;;;5.92;3.02;;;;;;;;;;1643714;86;21093;-68
2022/08/25 11:36:59;;;;;;;8.15;3.30;;;;;;;;;;1640632;86;21061;-67
2022/08/25 11:39:36;;;;;;;9.60;3.22;;;;;;;;;;1646947;86;21213;-67
2022/08/25 11:42:07;;;;;;;10.32;3.30;;;;;;;;;;1638389;86;21011;-69
2022/08/25 11:44:52;;;;;;;13.93;4.30;;;;;;;;;;1639442;86;21579;-70
2022/08/25 11:47:35;;;;;;;26.25;20.17;;;;;;;;;;1644522;86;21093;-73
2022/08/25 11:50:03;;;;;;;7.90;4.78;;;;;;;;;;1641826;86;21135;-70
2022/08/25 11:52:34;;;;;;;7.80;3.60;;;;;;;;;;1637243;86;21626;-67
2022/08/25 11:55:06;;;;;;;7.35;3.40;;;;;;;;;;1645205;86;21581;-67
2022/08/25 11:57:32;;;;;;;9.93;3.42;;;;;;;;;;1632666;86;21101;-67
2022/08/25 12:00:00;;;;;;;5.03;3.33;;;;;;;;;;1643882;86;21605;-67
2022/08/25 12:02:42;;;;;;;6.62;3.20;;;;;;;;;;1648109;86;21133;-66
2022/08/25 12:05:13;;;;;;;5.12;3.30;;;;;;;;;;1641977;86;21580;-66
2022/08/25 12:07:47;;;;;;;6.08;3.30;;;;;;;;;;1636607;85;21091;-65
2022/08/25 12:10:24;;;;;;;5.80;3.10;;;;;;;;;;1697078;81;21087;31
2022/08/25 12:12:56;;;;;;;10.80;3.47;;;;;;;;;;1714829;82;21108;-66
2022/08/25 12:15:43;;;;;;;11.53;3.75;;;;;;;;;;1689954;84;21051;-67
2022/08/25 12:18:11;;;;;;;6.12;3.42;;;;;;;;;;1696525;83;21069;-65
2022/08/25 12:20:48;;;;;;;8.60;3.27;;;;;;;;;;1688340;84;21469;-65
2022/08/25 12:23:15;;;;;;;10.32;3.55;;;;;;;;;;1661015;84;21114;-66
2022/08/25 12:25:43;;;;;;;7.87;3.70;;;;;;;;;;1694437;85;21109;-66
2022/08/25 12:28:11;;;;;;;10.20;3.42;;;;;;;;;;1693748;85;20996;-67
2022/08/25 12:30:39;;;;;;;5.45;3.27;;;;;;;;;;1693313;83;21070;-66
2022/08/25 12:33:10;;;;;;;5.15;3.70;;;;;;;;;;1670172;85;21050;-67
2022/08/25 12:35:56;;;;;;;9.30;4.00;;;;;;;;;;1694418;85;21037;-67
2022/08/25 12:38:39;;;;;;;7.97;3.95;;;;;;;;;;1696167;83;21030;-65
2022/08/25 12:41:07;;;;;;;6.65;3.60;;;;;;;;;;1688257;84;21060;-65
2022/08/25 12:43:34;;;;;;;9.40;3.62;;;;;;;;;;1648302;87;21176;-66
2022/08/25 12:48:34;;;;;;;6.28;3.37;;;;;;;;;;1796642;78;22880;-66
2022/08/25 12:51:08;;;;;;;4.92;3.30;;;;;;;;;;1778500;80;21034;-67
2022/08/25 12:53:36;;;;;;;5.72;3.25;;;;;;;;;;1779879;80;21071;-67
2022/08/25 12:56:08;;;;;;;9.45;3.40;;;;;;;;;;1786807;80;21075;-67
2022/08/25 12:58:37;;;;;;;7.30;3.47;;;;;;;;;;1787967;80;21518;-67
2022/08/25 13:01:11;;;;;;;15.03;4.28;;;;;;;;;;1783955;80;21009;-67
2022/08/25 13:03:39;;;;;;;9.48;3.70;;;;;;;;;;1771523;80;21071;-67
2022/08/25 13:06:09;;;;;;;5.85;3.37;;;;;;;;;;1778039;80;21076;-66
2022/08/25 13:08:50;;;;;;;8.95;3.70;;;;;;;;;;1778573;80;21071;-66
2022/08/25 13:11:25;;;;;;;8.50;3.45;;;;;;;;;;1774139;80;21126;-67
2022/08/25 13:14:04;;;;;;;4.30;3.10;;;;;;;;;;1715646;82;21067;-68
2022/08/25 13:16:32;;;;;;;6.28;3.37;;;;;;;;;;1730968;83;21083;-67
2022/08/25 13:19:00;;;;;;;4.12;3.00;;;;;;;;;;1746002;81;21201;-67
2022/08/25 13:21:30;;;;;;;4.90;3.62;;;;;;;;;;1758023;81;21113;-68
2022/08/25 13:23:57;;;;;;;5.95;3.22;;;;;;;;;;1761965;81;21086;-67
2022/08/25 13:26:31;;;;;;;21.68;14.18;;;;;;;;;;1754809;80;21614;-69
2022/08/25 13:29:03;;;;;;;14.00;7.15;;;;;;;;;;1749493;80;21079;-68
2022/08/25 13:31:29;;;;;;;22.87;4.78;;;;;;;;;;1751780;81;21016;-69
2022/08/25 13:33:56;;;;;;;10.60;4.00;;;;;;;;;;1758321;81;21618;-68
2022/08/25 13:39:13;;;;;;;6.17;3.70;;;;;;;;;;1759660;80;21070;-69
2022/08/25 13:41:44;;;;;;;9.78;4.00;;;;;;;;;;1760533;81;21882;-69
2022/08/25 13:44:11;;;;;;;5.70;3.77;;;;;;;;;;1754200;81;21618;-67
2022/08/25 13:46:37;;;;;;;6.20;3.67;;;;;;;;;;1760023;81;21098;-68
2022/08/25 13:49:04;;;;;;;8.38;4.00;;;;;;;;;;1754772;80;21072;-69
2022/08/25 13:51:31;;;;;;;8.88;3.67;;;;;;;;;;1754648;81;21195;-70
2022/08/25 13:54:01;;;;;;;18.70;4.20;;;;;;;;;;1752384;82;21005;-69
2022/08/25 13:56:29;;;;;;;7.95;3.87;;;;;;;;;;1746664;81;22220;-68
2022/08/25 13:58:55;;;;;;;5.15;3.22;;;;;;;;;;1727928;82;21112;-69
2022/08/25 14:01:23;;;;;;;15.55;4.08;;;;;;;;;;1747397;82;21007;-70
2022/08/25 14:03:49;;;;;;;13.62;4.35;;;;;;;;;;1747378;81;21060;-69
2022/08/25 14:06:17;;;;;;;8.85;3.77;;;;;;;;;;1750455;81;21496;-68
2022/08/25 14:09:00;;;;;;;18.05;4.58;;;;;;;;;;1755581;81;20997;-70
2022/08/25 14:11:43;;;;;;;8.28;3.70;;;;;;;;;;1748541;80;21173;-70
2022/08/25 14:14:13;;;;;;;4.87;3.47;;;;;;;;;;1746955;81;21601;-70
2022/08/25 14:16:50;;;;;;;7.70;5.92;;;;;;;;;;1747686;82;20994;-68
2022/08/25 14:19:18;;;;;;;28.87;21.97;;;;;;;;;;1748656;82;21141;-67
2022/08/25 14:21:44;;;;;;;12.90;8.28;;;;;;;;;;1749173;82;21089;-68
2022/08/25 14:24:12;;;;;;;9.40;3.80;;;;;;;;;;1749710;82;21030;-66
2022/08/25 14:26:39;;;;;;;8.83;3.60;;;;;;;;;;1748108;81;21072;-66
2022/08/25 14:29:05;;;;;;;7.17;3.50;;;;;;;;;;1749451;80;21032;-66
2022/08/25 14:31:32;;;;;;;12.78;3.75;;;;;;;;;;1750492;81;20987;-66
2022/08/25 14:34:00;;;;;;;10.00;3.50;;;;;;;;;;1749156;82;21055;-66
2022/08/25 14:36:29;;;;;;;5.58;3.47;;;;;;;;;;1748835;81;21023;-66
2022/08/25 14:38:56;;;;;;;7.90;3.52;;;;;;;;;;1750154;82;21105;-66
2022/08/25 14:41:22;;;;;;;8.70;3.72;;;;;;;;;;1755863;82;21108;-67
2022/08/25 14:43:49;;;;;;;4.97;3.30;;;;;;;;;;1755081;82;21058;-67
2022/08/25 14:46:17;;;;;;;7.35;3.70;;;;;;;;;;1752119;81;21490;-67
2022/08/25 14:48:45;;;;;;;7.45;3.40;;;;;;;;;;1742270;81;21560;-66
2022/08/25 14:51:11;;;;;;;4.55;3.40;;;;;;;;;;1751019;81;21052;-67
2022/08/25 14:53:37;;;;;;;6.97;3.62;;;;;;;;;;1752466;81;20998;-67
2022/08/25 14:56:03;;;;;;;16.97;4.00;;;;;;;;;;1757457;81;21049;-67
2022/08/25 14:58:29;;;;;;;7.87;3.60;;;;;;;;;;1748532;81;21060;-66
2022/08/25 15:00:56;;;;;;;11.55;4.10;;;;;;;;;;1747594;81;21026;-67